createdAt,value
2023-03-01T02:02:07.744Z,100235.34
2023-03-01T02:03:21.132Z,100225.84
2023-03-01T02:04:23.956Z,100225.09
2023-03-01T02:05:57.581Z,100226.09
2023-03-01T02:07:07.599Z,100228.66
2023-03-01T02:08:13.235Z,100219.22
2023-03-01T02:09:17.446Z,100211.56
2023-03-01T02:10:21.024Z,100215.09
2023-03-01T02:11:23.328Z,100215.91
2023-03-01T02:12:26.816Z,100207.50
2023-03-01T02:13:29.537Z,100211.75
2023-03-01T02:14:31.806Z,100210.78
2023-03-01T02:15:35.674Z,100209.03
2023-03-01T02:16:37.957Z,100205.09
2023-03-01T02:17:40.423Z,100204.97
2023-03-01T02:18:44.279Z,100189.41
2023-03-01T02:19:58.461Z,100201.50
2023-03-01T02:21:09.381Z,100187.81
2023-03-01T02:22:31.089Z,100197.13
2023-03-01T02:23:35.435Z,100186.03
2023-03-01T02:24:54.831Z,100190.28
2023-03-01T02:26:30.454Z,100191.13
2023-03-01T02:27:45.018Z,100185.91
2023-03-01T02:28:47.737Z,100190.34
2023-03-01T02:29:50.039Z,100197.13
2023-03-01T02:31:12.500Z,100199.69
2023-03-01T02:32:16.301Z,100185.13
2023-03-01T02:33:18.579Z,100184.22
2023-03-01T02:34:26.181Z,100191.19
2023-03-01T02:35:33.626Z,100191.09
2023-03-01T02:36:40.640Z,100182.47
2023-03-01T02:37:44.137Z,100178.13
2023-03-01T02:38:48.898Z,100176.34
2023-03-01T02:39:58.861Z,100169.47
2023-03-01T02:41:02.960Z,100177.28
2023-03-01T02:42:05.618Z,100175.56
2023-03-01T02:43:13.112Z,100171.28
2023-03-01T02:44:16.976Z,100173.75
2023-03-01T02:45:19.652Z,100183.09
2023-03-01T02:46:24.698Z,100175.47
2023-03-01T02:47:27.039Z,100173.06
2023-03-01T02:48:29.301Z,100178.16
2023-03-01T02:49:35.493Z,100176.28
2023-03-01T02:50:57.031Z,100170.41
2023-03-01T02:52:24.793Z,100177.28
2023-03-01T02:53:43.100Z,100165.53
2023-03-01T02:55:11.267Z,100172.22
2023-03-01T02:56:14.500Z,100163.41
2023-03-01T02:57:18.538Z,100162.56
2023-03-01T02:58:21.480Z,100167.81
2023-03-01T02:59:30.041Z,100162.53
2023-03-01T03:00:40.566Z,100154.94
2023-03-01T03:01:42.875Z,100165.03
2023-03-01T03:02:45.895Z,100159.75
2023-03-01T03:03:53.743Z,100167.69
2023-03-01T03:04:56.506Z,100170.16
2023-03-01T03:05:58.967Z,100163.22
2023-03-01T03:07:01.430Z,100170.94
2023-03-01T03:08:04.464Z,100161.50
2023-03-01T03:09:12.248Z,100160.59
2023-03-01T03:10:20.905Z,100157.25
2023-03-01T03:11:24.513Z,100156.31
2023-03-01T03:12:27.018Z,100154.66
2023-03-01T03:13:29.382Z,100155.63
2023-03-01T03:14:35.806Z,100149.56
2023-03-01T03:15:39.808Z,100156.47
2023-03-01T03:16:47.718Z,100154.69
2023-03-01T03:17:51.412Z,100154.78
2023-03-01T03:18:53.680Z,100166.88
2023-03-01T03:19:56.305Z,100151.34
2023-03-01T03:20:58.758Z,100158.22
2023-03-01T03:22:01.065Z,100153.09
2023-03-01T03:23:03.563Z,100155.72
2023-03-01T03:24:06.155Z,100143.72
2023-03-01T03:25:12.612Z,100148.84
2023-03-01T03:26:16.172Z,100149.78
2023-03-01T03:27:18.574Z,100152.16
2023-03-01T03:28:20.904Z,100152.91
2023-03-01T03:29:23.127Z,100142.78
2023-03-01T03:30:31.613Z,100154.97
2023-03-01T03:31:34.737Z,100153.41
2023-03-01T03:32:37.456Z,100147.50
2023-03-01T03:33:39.809Z,100155.22
2023-03-01T03:34:42.040Z,100143.94
2023-03-01T03:35:47.140Z,100151.59
2023-03-01T03:36:57.545Z,100142.97
2023-03-01T03:38:05.047Z,100144.03
2023-03-01T03:39:07.330Z,100139.47
2023-03-01T03:40:16.191Z,100143.00
2023-03-01T03:41:19.015Z,100146.16
2023-03-01T03:42:23.028Z,100146.25
2023-03-01T03:43:25.268Z,100144.63
2023-03-01T03:44:27.576Z,100141.97
2023-03-01T03:45:29.921Z,100142.72
2023-03-01T03:46:32.613Z,100129.84
2023-03-01T03:47:35.338Z,100140.00
2023-03-01T03:48:46.865Z,100134.75
2023-03-01T03:49:49.040Z,100139.88
2023-03-01T03:50:53.734Z,100130.47
2023-03-01T03:51:56.018Z,100133.84
2023-03-01T03:53:01.613Z,100132.88
2023-03-01T03:54:03.889Z,100140.53
2023-03-01T03:55:11.327Z,100137.06
2023-03-01T03:56:13.839Z,100115.59
2023-03-01T03:57:16.124Z,100126.72
2023-03-01T03:58:21.017Z,100121.56
2023-03-01T03:59:23.376Z,100125.75
2023-03-01T04:00:25.621Z,100119.91
2023-03-01T04:01:27.958Z,100124.19
2023-03-01T04:02:30.252Z,100118.19
2023-03-01T04:03:33.468Z,100121.56
2023-03-01T04:04:35.832Z,100121.56
2023-03-01T04:05:39.929Z,100122.50
2023-03-01T04:06:42.117Z,100119.88
2023-03-01T04:07:45.032Z,100127.59
2023-03-01T04:08:47.329Z,100119.91
2023-03-01T04:09:49.768Z,100116.47
2023-03-01T04:10:54.089Z,100119.06
2023-03-01T04:11:56.444Z,100124.22
2023-03-01T04:12:59.431Z,100119.13
2023-03-01T04:14:01.693Z,100115.63
2023-03-01T04:15:13.591Z,100119.13
2023-03-01T04:16:16.265Z,100115.59
2023-03-01T04:17:19.965Z,100119.78
2023-03-01T04:18:24.669Z,100114.69
2023-03-01T04:19:27.973Z,100115.53
2023-03-01T04:20:34.536Z,100118.97
2023-03-01T04:21:37.151Z,100113.00
2023-03-01T04:22:41.062Z,100112.09
2023-03-01T04:23:43.495Z,100115.47
2023-03-01T04:24:46.102Z,100112.09
2023-03-01T04:25:57.804Z,100113.81
2023-03-01T04:27:00.270Z,100105.19
2023-03-01T04:28:02.522Z,100110.31
2023-03-01T04:29:05.276Z,100115.59
2023-03-01T04:30:09.580Z,100117.22
2023-03-01T04:31:17.306Z,100115.63
2023-03-01T04:32:19.855Z,100112.16
2023-03-01T04:33:22.545Z,100116.44
2023-03-01T04:34:24.794Z,100118.84
2023-03-01T04:35:27.259Z,100123.16
2023-03-01T04:36:31.062Z,100124.06
2023-03-01T04:37:33.590Z,100119.00
2023-03-01T04:38:38.149Z,100114.81
2023-03-01T04:39:46.453Z,100114.75
2023-03-01T04:40:48.831Z,100105.41
2023-03-01T04:41:51.116Z,100109.56
2023-03-01T04:42:53.413Z,100102.69
2023-03-01T04:43:55.689Z,100106.06
2023-03-01T04:44:57.850Z,100104.31
2023-03-01T04:46:13.876Z,100106.88
2023-03-01T04:47:17.502Z,100113.81
2023-03-01T04:48:19.754Z,100112.84
2023-03-01T04:49:22.086Z,100109.34
2023-03-01T04:50:24.661Z,100115.34
2023-03-01T04:51:27.132Z,100111.09
2023-03-01T04:52:29.332Z,100106.78
2023-03-01T04:53:31.602Z,100118.66
2023-03-01T04:54:35.151Z,100116.13
2023-03-01T04:55:37.425Z,100122.22
2023-03-01T04:56:39.710Z,100116.34
2023-03-01T04:57:42.156Z,100117.03
2023-03-01T04:58:45.639Z,100120.56
2023-03-01T04:59:47.852Z,100122.25
2023-03-01T05:00:50.573Z,100115.63
2023-03-01T05:01:57.421Z,100121.69
2023-03-01T05:03:03.192Z,100124.41
2023-03-01T05:04:06.460Z,100122.56
2023-03-01T05:05:08.909Z,100114.97
2023-03-01T05:06:11.970Z,100129.56
2023-03-01T05:07:20.287Z,100120.97
2023-03-01T05:08:22.556Z,100122.53
2023-03-01T05:09:24.818Z,100125.94
2023-03-01T05:10:30.201Z,100126.72
2023-03-01T05:11:36.762Z,100124.00
2023-03-01T05:12:39.057Z,100120.72
2023-03-01T05:13:41.692Z,100122.28
2023-03-01T05:14:43.966Z,100123.25
2023-03-01T05:15:46.172Z,100128.19
2023-03-01T05:16:48.439Z,100129.88
2023-03-01T05:17:50.713Z,100129.00
2023-03-01T05:18:52.924Z,100128.16
2023-03-01T05:19:56.501Z,100127.47
2023-03-01T05:21:08.092Z,100123.03
2023-03-01T05:22:10.355Z,100122.97
2023-03-01T05:23:12.735Z,100123.13
2023-03-01T05:24:15.134Z,100122.97
2023-03-01T05:25:17.852Z,100117.09
2023-03-01T05:26:39.757Z,100121.44
2023-03-01T05:27:42.056Z,100114.66
2023-03-01T05:28:44.813Z,100124.94
2023-03-01T05:29:47.275Z,100113.78
2023-03-01T05:30:52.464Z,100119.56
2023-03-01T05:31:56.574Z,100122.28
2023-03-01T05:32:59.039Z,100109.44
2023-03-01T05:34:01.236Z,100119.03
2023-03-01T05:35:03.704Z,100109.75
2023-03-01T05:36:08.243Z,100110.53
2023-03-01T05:37:10.575Z,100114.88
2023-03-01T05:38:16.874Z,100111.25
2023-03-01T05:39:19.088Z,100112.53
2023-03-01T05:40:25.039Z,100111.44
2023-03-01T05:41:27.301Z,100119.22
2023-03-01T05:42:29.515Z,100116.56
2023-03-01T05:43:34.829Z,100113.91
2023-03-01T05:44:37.125Z,100117.28
2023-03-01T05:45:40.590Z,100116.44
2023-03-01T05:46:42.904Z,100110.50
2023-03-01T05:47:46.962Z,100116.53
2023-03-01T05:48:49.276Z,100114.00
2023-03-01T05:49:51.486Z,100110.41
2023-03-01T05:50:53.731Z,100110.34
2023-03-01T05:51:55.972Z,100106.13
2023-03-01T05:53:06.793Z,100110.41
2023-03-01T05:54:09.963Z,100115.59
2023-03-01T05:55:12.206Z,100107.19
2023-03-01T05:56:14.491Z,100107.00
2023-03-01T05:57:16.795Z,100105.50
2023-03-01T05:58:20.622Z,100106.25
2023-03-01T05:59:23.046Z,100114.66
2023-03-01T06:00:25.358Z,100112.06
2023-03-01T06:01:27.893Z,100112.09
2023-03-01T06:02:31.519Z,100106.03
2023-03-01T06:03:34.730Z,100111.97
2023-03-01T06:04:37.028Z,100105.09
2023-03-01T06:05:40.404Z,100115.50
2023-03-01T06:06:42.720Z,100112.97
2023-03-01T06:07:45.083Z,100112.06
2023-03-01T06:08:47.314Z,100113.78
2023-03-01T06:09:49.536Z,100109.53
2023-03-01T06:10:51.748Z,100111.34
2023-03-01T06:11:53.968Z,100113.91
2023-03-01T06:12:56.783Z,100122.59
2023-03-01T06:13:59.046Z,100118.50
2023-03-01T06:15:01.643Z,100113.28
2023-03-01T06:16:07.606Z,100119.19
2023-03-01T06:17:09.876Z,100112.31
2023-03-01T06:18:12.086Z,100118.47
2023-03-01T06:19:14.317Z,100118.38
2023-03-01T06:20:19.383Z,100109.00
2023-03-01T06:21:21.610Z,100120.31
2023-03-01T06:22:24.055Z,100117.91
2023-03-01T06:23:26.403Z,100119.56
2023-03-01T06:24:29.735Z,100117.75
2023-03-01T06:25:32.059Z,100118.78
2023-03-01T06:26:34.303Z,100121.31
2023-03-01T06:27:36.988Z,100113.78
2023-03-01T06:28:39.284Z,100122.28
2023-03-01T06:29:42.702Z,100118.03
2023-03-01T06:30:45.045Z,100106.25
2023-03-01T06:31:47.367Z,100112.94
2023-03-01T06:32:50.115Z,100113.94
2023-03-01T06:33:52.502Z,100109.69
2023-03-01T06:34:54.812Z,100112.22
2023-03-01T06:35:57.585Z,100109.91
2023-03-01T06:36:59.919Z,100115.81
2023-03-01T06:38:04.652Z,100112.44
2023-03-01T06:39:07.423Z,100102.25
2023-03-01T06:40:12.331Z,100109.84
2023-03-01T06:41:14.809Z,100107.34
2023-03-01T06:42:17.516Z,100109.22
2023-03-01T06:43:19.762Z,100113.50
2023-03-01T06:44:22.010Z,100105.06
2023-03-01T06:45:24.948Z,100107.72
2023-03-01T06:46:27.275Z,100112.91
2023-03-01T06:47:29.549Z,100099.97
2023-03-01T06:48:31.993Z,100098.31
2023-03-01T06:49:34.252Z,100096.72
2023-03-01T06:50:36.701Z,100094.91
2023-03-01T06:51:39.011Z,100103.63
2023-03-01T06:52:42.133Z,100103.00
2023-03-01T06:53:44.352Z,100103.19
2023-03-01T06:54:46.624Z,100104.50
2023-03-01T06:55:54.374Z,100089.16
2023-03-01T06:56:56.614Z,100092.53
2023-03-01T06:58:00.028Z,100096.06
2023-03-01T06:59:03.620Z,100093.56
2023-03-01T07:00:06.847Z,100085.19
2023-03-01T07:01:10.286Z,100091.13
2023-03-01T07:02:14.105Z,100089.38
2023-03-01T07:03:16.373Z,100093.66
2023-03-01T07:04:18.608Z,100094.50
2023-03-01T07:05:21.125Z,100089.66
2023-03-01T07:06:23.921Z,100086.56
2023-03-01T07:07:26.597Z,100084.84
2023-03-01T07:08:28.903Z,100089.91
2023-03-01T07:09:31.216Z,100087.31
2023-03-01T07:10:33.675Z,100074.75
2023-03-01T07:11:36.048Z,100080.66
2023-03-01T07:12:38.581Z,100089.22
2023-03-01T07:13:40.874Z,100081.44
2023-03-01T07:14:44.992Z,100079.03
2023-03-01T07:15:47.229Z,100077.22
2023-03-01T07:16:49.529Z,100082.34
2023-03-01T07:17:52.255Z,100081.72
2023-03-01T07:18:55.137Z,100079.16
2023-03-01T07:19:58.042Z,100080.91
2023-03-01T07:21:05.757Z,100068.38
2023-03-01T07:22:08.938Z,100067.31
2023-03-01T07:23:11.610Z,100070.22
2023-03-01T07:24:14.223Z,100080.56
2023-03-01T07:25:16.530Z,100074.56
2023-03-01T07:26:18.821Z,100077.50
2023-03-01T07:27:21.419Z,100084.41
2023-03-01T07:28:24.858Z,100074.38
2023-03-01T07:29:27.176Z,100087.03
2023-03-01T07:30:29.602Z,100085.94
2023-03-01T07:31:32.166Z,100076.41
2023-03-01T07:32:34.652Z,100075.78
2023-03-01T07:33:36.975Z,100082.06
2023-03-01T07:34:39.194Z,100074.25
2023-03-01T07:35:41.521Z,100073.56
2023-03-01T07:36:46.205Z,100069.44
2023-03-01T07:37:51.272Z,100069.19
2023-03-01T07:38:53.515Z,100079.44
2023-03-01T07:39:55.816Z,100071.91
2023-03-01T07:41:02.877Z,100074.50
2023-03-01T07:42:05.130Z,100064.31
2023-03-01T07:43:08.960Z,100068.13
2023-03-01T07:44:12.132Z,100070.50
2023-03-01T07:45:14.859Z,100068.22
2023-03-01T07:46:17.182Z,100056.41
2023-03-01T07:47:19.599Z,100065.94
2023-03-01T07:48:21.886Z,100056.97
2023-03-01T07:49:24.225Z,100063.75
2023-03-01T07:50:26.489Z,100064.75
2023-03-01T07:51:28.729Z,100059.63
2023-03-01T07:52:31.633Z,100059.75
2023-03-01T07:53:35.000Z,100058.53
2023-03-01T07:54:37.176Z,100056.78
2023-03-01T07:55:39.439Z,100061.84
2023-03-01T07:56:41.722Z,100056.09
2023-03-01T07:57:43.950Z,100060.72
2023-03-01T07:58:47.393Z,100054.81
2023-03-01T07:59:50.953Z,100060.81
2023-03-01T08:00:53.255Z,100063.44
2023-03-01T08:01:56.859Z,100058.78
2023-03-01T08:03:02.414Z,100062.13
2023-03-01T08:04:07.918Z,100063.78
2023-03-01T08:05:11.059Z,100054.91
2023-03-01T08:06:15.020Z,100070.59
2023-03-01T08:07:17.271Z,100064.88
2023-03-01T08:08:19.537Z,100061.28
2023-03-01T08:09:22.599Z,100061.28
2023-03-01T08:10:24.874Z,100056.19
2023-03-01T08:11:29.116Z,100058.28
2023-03-01T08:12:31.412Z,100054.13
2023-03-01T08:13:34.470Z,100057.38
2023-03-01T08:14:36.960Z,100054.84
2023-03-01T08:15:39.247Z,100051.75
2023-03-01T08:16:41.962Z,100053.19
2023-03-01T08:17:44.671Z,100053.25
2023-03-01T08:18:47.138Z,100045.72
2023-03-01T08:19:49.390Z,100040.69
2023-03-01T08:20:51.569Z,100043.63
2023-03-01T08:21:53.724Z,100046.97
2023-03-01T08:22:56.029Z,100039.31
2023-03-01T08:23:58.301Z,100043.72
2023-03-01T08:25:00.584Z,100044.41
2023-03-01T08:26:19.641Z,100039.19
2023-03-01T08:27:23.601Z,100042.78
2023-03-01T08:28:26.214Z,100040.19
2023-03-01T08:29:28.586Z,100035.03
2023-03-01T08:30:30.778Z,100036.69
2023-03-01T08:31:38.767Z,100040.03
2023-03-01T08:32:41.132Z,100037.31
2023-03-01T08:33:43.522Z,100031.50
2023-03-01T08:34:47.937Z,100032.38
2023-03-01T08:35:50.208Z,100038.34
2023-03-01T08:36:53.174Z,100033.16
2023-03-01T08:37:55.469Z,100034.31
2023-03-01T08:38:57.734Z,100041.00
2023-03-01T08:40:04.416Z,100031.53
2023-03-01T08:41:06.719Z,100035.16
2023-03-01T08:42:09.031Z,100035.25
2023-03-01T08:43:11.385Z,100035.16
2023-03-01T08:44:17.392Z,100033.47
2023-03-01T08:45:19.632Z,100032.72
2023-03-01T08:46:21.917Z,100023.22
2023-03-01T08:47:24.250Z,100026.69
2023-03-01T08:48:28.893Z,100034.44
2023-03-01T08:49:31.068Z,100033.53
2023-03-01T08:50:33.264Z,100025.69
2023-03-01T08:51:37.742Z,100036.03
2023-03-01T08:52:40.095Z,100021.28
2023-03-01T08:53:42.356Z,100034.25
2023-03-01T08:54:44.690Z,100020.56
2023-03-01T08:55:48.269Z,100014.53
2023-03-01T08:56:51.793Z,100011.06
2023-03-01T08:57:54.160Z,100023.97
2023-03-01T08:58:56.372Z,100019.50
2023-03-01T08:59:58.619Z,100024.78
2023-03-01T09:01:01.179Z,100012.69
2023-03-01T09:02:04.563Z,100013.53
2023-03-01T09:03:07.003Z,100011.88
2023-03-01T09:05:10.412Z,99994.72
2023-03-01T09:06:13.008Z,100005.94
2023-03-01T09:07:15.267Z,99999.03
2023-03-01T09:08:18.710Z,100002.41
2023-03-01T09:09:21.110Z,100014.53
2023-03-01T09:10:23.422Z,100002.34
2023-03-01T09:11:25.737Z,100008.44
2023-03-01T09:12:28.075Z,99997.31
2023-03-01T09:13:32.107Z,99997.28
2023-03-01T09:14:34.352Z,100004.19
2023-03-01T09:15:39.996Z,100008.47
2023-03-01T09:16:42.898Z,100002.47
2023-03-01T09:17:45.095Z,99999.88
2023-03-01T09:18:54.287Z,100011.97
2023-03-01T09:19:56.491Z,100005.97
2023-03-01T09:21:08.076Z,100013.72
2023-03-01T09:22:10.400Z,100001.66
2023-03-01T09:23:12.588Z,100006.84
2023-03-01T09:24:16.703Z,100011.16
2023-03-01T09:25:18.935Z,100006.81
2023-03-01T09:26:23.402Z,100010.22
2023-03-01T09:27:26.050Z,100008.50
2023-03-01T09:28:30.244Z,100010.25
2023-03-01T09:29:32.679Z,100009.38
2023-03-01T09:30:35.272Z,100003.38
2023-03-01T09:31:37.725Z,100000.78
2023-03-01T09:32:43.439Z,99997.31
2023-03-01T09:33:50.129Z,100001.63
2023-03-01T09:35:07.690Z,99996.28
2023-03-01T09:36:13.580Z,99990.41
2023-03-01T09:37:15.936Z,99992.13
2023-03-01T09:38:18.466Z,99991.25
2023-03-01T09:39:21.419Z,99988.69
2023-03-01T09:40:27.512Z,99982.63
2023-03-01T09:41:32.383Z,99982.63
2023-03-01T09:42:37.225Z,99974.84
2023-03-01T09:43:56.762Z,99988.66
2023-03-01T09:45:02.247Z,99983.47
2023-03-01T09:46:08.594Z,99972.16
2023-03-01T09:47:17.125Z,99978.28
2023-03-01T09:48:26.046Z,99980.00
2023-03-01T09:49:31.374Z,99975.63
2023-03-01T09:50:40.151Z,99967.59
2023-03-01T09:51:42.973Z,99979.09
2023-03-01T09:52:56.017Z,99970.47
2023-03-01T09:53:59.644Z,99973.84
2023-03-01T09:55:02.332Z,99959.94
2023-03-01T09:56:15.867Z,99974.66
2023-03-01T09:57:33.787Z,99976.47
2023-03-01T09:58:48.275Z,99964.38
2023-03-01T10:00:18.572Z,99960.91
2023-03-01T10:01:32.690Z,99957.19
2023-03-01T10:02:41.204Z,99959.09
2023-03-01T10:04:03.196Z,99956.59
2023-03-01T10:05:30.360Z,99946.00
2023-03-01T10:06:35.283Z,99951.09
2023-03-01T10:07:47.493Z,99950.97
2023-03-01T10:08:59.406Z,99941.31
2023-03-01T10:10:04.687Z,99940.16
2023-03-01T10:11:21.683Z,99944.59
2023-03-01T10:12:35.958Z,99940.63
2023-03-01T10:14:07.226Z,99945.59
2023-03-01T10:15:22.041Z,99937.09
2023-03-01T10:16:51.198Z,99935.09
2023-03-01T10:18:01.371Z,99927.22
2023-03-01T10:19:05.745Z,99933.66
2023-03-01T10:20:27.085Z,99929.44
2023-03-01T10:21:32.493Z,99932.13
2023-03-01T10:22:35.816Z,99931.31
2023-03-01T10:23:38.149Z,99933.53
2023-03-01T10:24:40.540Z,99926.28
2023-03-01T10:26:14.315Z,99933.47
2023-03-01T10:27:51.688Z,99927.53
2023-03-01T10:29:05.978Z,99934.88
2023-03-01T10:30:40.514Z,99930.97
2023-03-01T10:31:51.898Z,99929.41
2023-03-01T10:32:55.031Z,99921.56
2023-03-01T10:33:58.182Z,99923.19
2023-03-01T10:35:00.540Z,99928.38
2023-03-01T10:36:03.386Z,99916.28
2023-03-01T10:37:15.009Z,99923.16
2023-03-01T10:38:18.503Z,99919.47
2023-03-01T10:39:26.259Z,99923.84
2023-03-01T10:40:28.584Z,99920.38
2023-03-01T10:41:31.187Z,99920.16
2023-03-01T10:42:38.076Z,99913.91
2023-03-01T10:43:48.940Z,99917.09
2023-03-01T10:44:51.114Z,99914.72
2023-03-01T10:45:53.961Z,99904.28
2023-03-01T10:47:02.602Z,99896.84
2023-03-01T10:48:04.828Z,99910.63
2023-03-01T10:49:19.703Z,99907.59
2023-03-01T10:50:23.869Z,99906.28
2023-03-01T10:51:26.094Z,99906.09
2023-03-01T10:52:41.108Z,99906.25
2023-03-01T10:53:49.227Z,99897.63
2023-03-01T10:54:54.578Z,99897.78
2023-03-01T10:56:03.670Z,99901.72
2023-03-01T10:57:06.356Z,99887.88
2023-03-01T10:58:10.607Z,99897.41
2023-03-01T10:59:25.508Z,99893.78
2023-03-01T11:00:28.761Z,99867.09
2023-03-01T11:01:36.276Z,99869.13
2023-03-01T11:02:38.965Z,99890.28
2023-03-01T11:03:41.313Z,99894.50
2023-03-01T11:05:20.390Z,99878.59
2023-03-01T11:06:23.547Z,99888.56
2023-03-01T11:07:25.973Z,99873.47
2023-03-01T11:08:48.941Z,99892.72
2023-03-01T11:09:51.061Z,99889.34
2023-03-01T11:11:05.544Z,99878.50
2023-03-01T11:12:16.529Z,99891.44
2023-03-01T11:13:20.597Z,99880.22
2023-03-01T11:14:29.149Z,99886.75
2023-03-01T11:15:31.740Z,99875.84
2023-03-01T11:16:39.652Z,99876.44
2023-03-01T11:17:53.850Z,99867.63
2023-03-01T11:19:00.105Z,99868.78
2023-03-01T11:20:14.740Z,99867.50
2023-03-01T11:21:17.512Z,99860.38
2023-03-01T11:22:22.824Z,99856.50
2023-03-01T11:23:28.573Z,99865.13
2023-03-01T11:24:43.649Z,99862.41
2023-03-01T11:25:57.309Z,99869.56
2023-03-01T11:27:04.356Z,99856.50
2023-03-01T11:28:15.178Z,99853.94
2023-03-01T11:29:48.855Z,99855.91
2023-03-01T11:31:07.675Z,99857.19
2023-03-01T11:32:14.403Z,99842.06
2023-03-01T11:33:35.675Z,99834.69
2023-03-01T11:34:54.332Z,99835.84
2023-03-01T11:36:06.739Z,99839.84
2023-03-01T11:37:14.600Z,99842.34
2023-03-01T11:38:22.287Z,99834.84
2023-03-01T11:39:43.289Z,99836.59
2023-03-01T11:40:54.987Z,99836.53
2023-03-01T11:42:18.037Z,99834.81
2023-03-01T11:43:54.967Z,99826.84
2023-03-01T11:45:02.903Z,99819.84
2023-03-01T11:46:33.546Z,99823.31
2023-03-01T11:47:44.775Z,99815.84
2023-03-01T11:49:06.377Z,99814.66
2023-03-01T11:50:24.175Z,99822.00
2023-03-01T11:51:46.900Z,99820.09
2023-03-01T11:53:19.272Z,99816.44
2023-03-01T11:54:47.524Z,99818.84
2023-03-01T11:56:02.820Z,99805.88
2023-03-01T11:57:43.916Z,99810.41
2023-03-01T11:59:03.726Z,99810.41
2023-03-01T12:01:02.668Z,99817.00
2023-03-01T12:02:44.025Z,99796.81
2023-03-01T12:04:01.173Z,99817.97
2023-03-01T12:05:16.590Z,99804.91
2023-03-01T12:06:50.904Z,99792.59
2023-03-01T12:08:15.776Z,99795.91
2023-03-01T12:09:35.991Z,99795.91
2023-03-01T12:10:58.171Z,99792.41
2023-03-01T12:12:23.378Z,99794.59
2023-03-01T12:13:45.388Z,99780.81
2023-03-01T12:15:02.861Z,99773.66
2023-03-01T12:16:38.928Z,99783.88
2023-03-01T12:18:03.387Z,99771.53
2023-03-01T12:19:08.448Z,99770.13
2023-03-01T12:20:29.102Z,99780.69
2023-03-01T12:21:52.199Z,99786.72
2023-03-01T12:23:28.952Z,99775.00
2023-03-01T12:24:53.470Z,99765.78
2023-03-01T12:26:01.824Z,99768.59
2023-03-01T12:27:12.925Z,99770.53
2023-03-01T12:28:47.991Z,99761.13
2023-03-01T12:30:14.343Z,99766.22
2023-03-01T12:31:35.496Z,99759.28
2023-03-01T12:32:46.422Z,99760.97
2023-03-01T12:34:07.144Z,99759.91
2023-03-01T12:35:24.218Z,99756.22
2023-03-01T12:36:30.031Z,99748.94
2023-03-01T12:37:53.712Z,99747.25
2023-03-01T12:39:34.569Z,99742.25
2023-03-01T12:41:09.914Z,99745.63
2023-03-01T12:42:40.045Z,99740.16
2023-03-01T12:44:21.909Z,99729.75
2023-03-01T12:45:54.922Z,99738.06
2023-03-01T12:47:21.769Z,99729.09
2023-03-01T12:48:41.388Z,99731.22
2023-03-01T12:49:56.216Z,99738.25
2023-03-01T12:51:04.338Z,99741.47
2023-03-01T12:52:23.549Z,99731.53
2023-03-01T12:53:26.682Z,99731.97
2023-03-01T12:54:33.955Z,99720.94
2023-03-01T12:55:42.097Z,99719.31
2023-03-01T12:56:53.122Z,99714.63
2023-03-01T12:58:16.251Z,99715.47
2023-03-01T12:59:35.724Z,99722.59
2023-03-01T13:00:52.523Z,99734.78
2023-03-01T13:02:17.709Z,99726.00
2023-03-01T13:03:45.011Z,99715.56
2023-03-01T13:05:27.756Z,99720.75
2023-03-01T13:06:56.674Z,99717.69
2023-03-01T13:08:10.292Z,99720.44
2023-03-01T13:09:28.809Z,99700.16
2023-03-01T13:11:06.257Z,99702.25
2023-03-01T13:12:43.369Z,99701.91
2023-03-01T13:13:47.392Z,99703.81
2023-03-01T13:14:49.565Z,99709.13
2023-03-01T13:15:52.246Z,99709.22
2023-03-01T13:16:55.673Z,99704.97
2023-03-01T13:17:59.066Z,99703.69
2023-03-01T13:19:16.588Z,99703.94
2023-03-01T13:20:21.220Z,99704.00
2023-03-01T13:21:32.660Z,99693.06
2023-03-01T13:22:39.703Z,99701.75
2023-03-01T13:23:48.861Z,99694.69
2023-03-01T13:25:02.886Z,99682.03
2023-03-01T13:26:09.543Z,99702.19
2023-03-01T13:27:18.499Z,99696.59
2023-03-01T13:28:38.423Z,99695.06
2023-03-01T13:30:04.245Z,99693.25
2023-03-01T13:31:09.408Z,99697.50
2023-03-01T13:32:44.392Z,99688.19
2023-03-01T13:33:53.785Z,99704.59
2023-03-01T13:35:21.834Z,99681.00
2023-03-01T13:36:31.412Z,99678.41
2023-03-01T13:37:36.885Z,99680.47
2023-03-01T13:38:49.733Z,99668.94
2023-03-01T13:39:52.455Z,99662.72
2023-03-01T13:40:54.620Z,99666.06
2023-03-01T13:41:58.435Z,99669.78
2023-03-01T13:43:31.331Z,99677.44
2023-03-01T13:44:39.621Z,99673.66
2023-03-01T13:45:44.112Z,99672.34
2023-03-01T13:46:47.313Z,99667.16
2023-03-01T13:47:59.195Z,99663.94
2023-03-01T13:49:01.533Z,99662.25
2023-03-01T13:50:05.114Z,99655.28
2023-03-01T13:51:10.572Z,99664.16
2023-03-01T13:52:46.316Z,99661.31
2023-03-01T13:53:48.864Z,99659.56
2023-03-01T13:54:51.077Z,99654.66
2023-03-01T13:56:02.845Z,99661.72
2023-03-01T13:57:05.317Z,99663.34
2023-03-01T13:58:21.824Z,99661.19
2023-03-01T13:59:27.118Z,99658.38
2023-03-01T14:00:38.408Z,99654.81
2023-03-01T14:01:43.581Z,99650.69
2023-03-01T14:02:46.089Z,99659.97
2023-03-01T14:03:48.359Z,99656.19
2023-03-01T14:04:58.303Z,99662.06
2023-03-01T14:06:17.791Z,99650.78
2023-03-01T14:07:25.172Z,99651.38
2023-03-01T14:08:29.859Z,99658.59
2023-03-01T14:09:36.680Z,99649.00
2023-03-01T14:11:06.394Z,99648.59
2023-03-01T14:12:25.345Z,99652.41
2023-03-01T14:13:40.041Z,99649.38
2023-03-01T14:15:07.421Z,99654.78
2023-03-01T14:16:29.460Z,99655.38
2023-03-01T14:17:41.660Z,99645.09
2023-03-01T14:19:32.678Z,99656.69
2023-03-01T14:20:42.145Z,99657.88
2023-03-01T14:21:44.572Z,99659.22
2023-03-01T14:22:48.500Z,99662.69
2023-03-01T14:23:50.704Z,99655.72
2023-03-01T14:24:56.653Z,99648.00
2023-03-01T14:25:59.158Z,99649.69
2023-03-01T14:27:02.740Z,99653.19
2023-03-01T14:28:27.619Z,99648.09
2023-03-01T14:29:38.390Z,99647.50
2023-03-01T14:30:44.977Z,99640.47
2023-03-01T14:31:53.229Z,99635.91
2023-03-01T14:33:01.733Z,99640.94
2023-03-01T14:34:04.696Z,99647.50
2023-03-01T14:35:35.264Z,99642.06
2023-03-01T14:36:37.518Z,99647.19
2023-03-01T14:37:40.940Z,99640.88
2023-03-01T14:38:48.423Z,99632.22
2023-03-01T14:39:51.447Z,99634.63
2023-03-01T14:40:58.353Z,99647.38
2023-03-01T14:42:10.632Z,99639.91
2023-03-01T14:43:23.796Z,99641.88
2023-03-01T14:44:26.082Z,99638.31
2023-03-01T14:45:31.426Z,99643.41
2023-03-01T14:46:37.650Z,99649.78
2023-03-01T14:47:40.846Z,99655.13
2023-03-01T14:48:43.799Z,99649.00
2023-03-01T14:49:46.594Z,99647.19
2023-03-01T14:50:49.663Z,99648.63
2023-03-01T14:52:01.438Z,99649.34
2023-03-01T14:53:06.291Z,99647.91
2023-03-01T14:54:31.006Z,99652.78
2023-03-01T14:55:42.998Z,99655.56
2023-03-01T14:56:46.928Z,99650.16
2023-03-01T14:57:50.986Z,99662.47
2023-03-01T14:58:58.610Z,99665.19
2023-03-01T15:00:06.024Z,99661.91
2023-03-01T15:01:09.881Z,99652.19
2023-03-01T15:02:20.617Z,99655.72
2023-03-01T15:03:37.996Z,99660.69
2023-03-01T15:04:41.657Z,99673.50